Time;durP1;ratioP1;P1;durP2;ratioP2;P2;SDS_P1;SDS_P2;PMS_P1;PMS_P2;Temp;Humidity;BMP_temperature;BMP_pressure;BME280_temperature;BME280_humidity;BME280_pressure;Samples;Min_cycle;Max_cycle;Signal;HPM_P1;HPM_P2
2021/04/09 00:00:13;;;;;;;0.30;0.30;;;;;;;21.87;30.67;94451.47;4974923;28;20038;-68
2021/04/09 00:02:39;;;;;;;0.30;0.22;;;;;;;21.90;30.78;94453.59;4979240;28;20031;-68
2021/04/09 00:05:06;;;;;;;0.40;0.40;;;;;;;21.88;30.62;94452.28;4972065;28;20170;-68
2021/04/09 00:07:33;;;;;;;0.52;0.32;;;;;;;21.87;30.58;94451.47;4954066;28;20030;-68
2021/04/09 00:09:59;;;;;;;0.55;0.30;;;;;;;21.88;30.89;94455.72;4956938;28;20023;-68
2021/04/09 00:12:25;;;;;;;0.35;0.30;;;;;;;21.90;30.84;94452.81;4977748;28;20037;-68
2021/04/09 00:14:51;;;;;;;1.02;0.40;;;;;;;21.88;30.55;94452.28;4978180;28;20038;-68
2021/04/09 00:17:18;;;;;;;0.55;0.40;;;;;;;21.89;30.53;94448.56;4977413;28;20049;-68
2021/04/09 00:19:43;;;;;;;0.30;0.30;;;;;;;21.88;30.95;94455.72;4962633;28;20057;-68
2021/04/09 00:22:09;;;;;;;0.30;0.30;;;;;;;21.88;30.94;94454.94;4977700;28;20045;-67
2021/04/09 00:24:35;;;;;;;0.52;0.38;;;;;;;21.86;30.86;94445.38;4994927;28;20042;-68
2021/04/09 00:27:01;;;;;;;0.52;0.32;;;;;;;21.88;30.49;94437.19;4971438;28;20039;-68
2021/04/09 00:29:27;;;;;;;0.38;0.30;;;;;;;21.87;30.47;94438.22;4976067;28;20027;-68
2021/04/09 00:31:52;;;;;;;0.30;0.30;;;;;;;21.88;30.83;94441.69;4975446;28;20034;-68
2021/04/09 00:34:21;;;;;;;0.30;0.30;;;;;;;21.89;30.59;94443.25;4992640;28;20078;-67
2021/04/09 00:36:49;;;;;;;0.30;0.30;;;;;;;21.89;30.98;94445.91;4994603;28;20125;-68
2021/04/09 00:39:14;;;;;;;0.40;0.32;;;;;;;21.88;30.74;94437.19;4993227;28;20039;-68
2021/04/09 00:41:40;;;;;;;0.32;0.30;;;;;;;21.89;30.78;94440.63;4978479;28;20080;-68
2021/04/09 00:44:10;;;;;;;0.47;0.30;;;;;;;21.89;30.88;94435.31;4992927;28;20062;-68
2021/04/09 00:46:36;;;;;;;0.40;0.40;;;;;;;21.89;30.61;94430.81;4962467;28;20124;-68
2021/04/09 00:49:02;;;;;;;0.20;0.20;;;;;;;21.89;30.88;94430.03;4977493;28;20062;-68
2021/04/09 00:51:29;;;;;;;0.30;0.30;;;;;;;21.90;31.02;94427.13;4994504;28;20454;-68
2021/04/09 00:53:57;;;;;;;0.30;0.20;;;;;;;21.91;30.63;94425.25;4977606;28;20018;-68
2021/04/09 00:56:25;;;;;;;0.30;0.30;;;;;;;21.90;30.65;94427.13;4974644;28;20045;-68
2021/04/09 00:58:52;;;;;;;0.65;0.30;;;;;;;21.89;30.79;94416.78;4970617;28;20114;-68
2021/04/09 01:01:18;;;;;;;0.88;0.30;;;;;;;21.90;31.03;94426.34;4961815;28;20100;-68
2021/04/09 01:03:44;;;;;;;0.73;0.40;;;;;;;21.86;30.59;94416.28;4948370;28;20039;-68
2021/04/09 01:06:09;;;;;;;0.30;0.30;;;;;;;21.89;30.94;94420.22;4974359;28;20092;-67
2021/04/09 01:08:38;;;;;;;0.20;0.20;;;;;;;21.89;30.64;94417.56;4986573;28;20088;-67
2021/04/09 01:11:04;;;;;;;1.75;0.30;;;;;;;21.88;30.58;94410.72;4958358;28;20051;-68
2021/04/09 01:13:32;;;;;;;0.60;0.28;;;;;;;21.89;30.66;94414.16;4953439;28;20022;-68
2021/04/09 01:15:58;;;;;;;0.28;0.20;;;;;;;21.87;30.61;94411.75;4977940;28;20030;-68
2021/04/09 01:18:30;;;;;;;0.32;0.20;;;;;;;21.91;30.87;94410.16;4977446;28;20045;-68
2021/04/09 01:21:05;;;;;;;0.20;0.20;;;;;;;21.90;30.50;94411.22;4974247;28;20026;-68
2021/04/09 01:23:55;;;;;;;0.32;0.30;;;;;;;21.91;30.71;94412.03;4958681;28;20110;-68
2021/04/09 01:26:47;;;;;;;0.40;0.30;;;;;;;21.90;30.78;94410.44;4974384;28;20055;-67
2021/04/09 01:29:39;;;;;;;0.40;0.30;;;;;;;21.90;30.91;94399.84;4992111;28;20391;-67
2021/04/09 01:32:07;;;;;;;0.40;0.35;;;;;;;21.86;30.56;94408.31;5001751;28;20026;-68
2021/04/09 01:34:35;;;;;;;0.35;0.30;;;;;;;21.84;30.65;94393.78;4977562;28;20022;-67
2021/04/09 01:37:27;;;;;;;0.30;0.20;;;;;;;21.84;30.95;94391.91;4975191;28;20022;-68
2021/04/09 01:40:10;;;;;;;0.28;0.22;;;;;;;21.89;30.76;94399.03;4977099;28;20070;-68
2021/04/09 01:42:35;;;;;;;0.22;0.20;;;;;;;21.83;30.74;94390.31;4962489;28;20094;-68
2021/04/09 01:45:01;;;;;;;1.15;0.25;;;;;;;21.85;30.61;94392.72;4961103;28;20057;-68
2021/04/09 01:47:27;;;;;;;0.47;0.25;;;;;;;21.85;30.69;94398.78;4975827;28;20022;-68
2021/04/09 01:50:00;;;;;;;0.20;0.20;;;;;;;21.87;30.77;94395.88;4960774;28;20037;-68
2021/04/09 01:52:29;;;;;;;0.28;0.25;;;;;;;21.87;30.48;94387.94;4960944;28;20034;-68
2021/04/09 01:54:55;;;;;;;0.30;0.30;;;;;;;21.86;30.47;94400.38;4977377;28;20030;-68
2021/04/09 01:57:21;;;;;;;0.45;0.40;;;;;;;21.84;30.64;94399.06;4958756;28;20092;-68
2021/04/09 01:59:48;;;;;;;0.28;0.22;;;;;;;21.87;30.61;94398.53;4960342;28;20023;-68
2021/04/09 02:02:15;;;;;;;0.20;0.20;;;;;;;21.86;30.69;94392.44;4958927;28;20038;-68
2021/04/09 02:04:40;;;;;;;0.20;0.20;;;;;;;21.85;30.80;94393.50;4960029;28;20022;-68
2021/04/09 02:07:05;;;;;;;0.30;0.30;;;;;;;21.86;30.53;94391.66;4977998;28;20042;-68
2021/04/09 02:09:31;;;;;;;0.25;0.25;;;;;;;21.85;30.59;94390.84;4958200;28;20035;-68
2021/04/09 02:11:56;;;;;;;0.30;0.30;;;;;;;21.85;30.60;94385.53;4953368;28;20037;-68
2021/04/09 02:14:22;;;;;;;0.30;0.30;;;;;;;21.86;30.47;94389.00;4971225;28;20026;-67
2021/04/09 02:16:48;;;;;;;0.20;0.20;;;;;;;21.86;30.67;94389.78;4972641;28;20058;-68
2021/04/09 02:19:13;;;;;;;0.30;0.30;;;;;;;21.86;30.78;94389.00;4989444;28;20038;-68
2021/04/09 02:21:39;;;;;;;0.30;0.20;;;;;;;21.86;30.47;94389.78;4975426;28;20034;-68
2021/04/09 02:24:08;;;;;;;0.30;0.20;;;;;;;21.85;30.79;94385.53;4956881;28;20026;-68
2021/04/09 02:26:38;;;;;;;0.20;0.20;;;;;;;21.88;30.61;94386.09;4989011;28;20038;-68
2021/04/09 02:29:04;;;;;;;0.20;0.20;;;;;;;21.83;30.66;94382.38;4971152;28;20058;-68
2021/04/09 02:31:30;;;;;;;0.20;0.20;;;;;;;21.86;30.76;94384.50;4957102;28;20122;-68
2021/04/09 02:33:55;;;;;;;0.25;0.20;;;;;;;21.85;30.70;94380.25;4941063;28;20161;-68
2021/04/09 02:36:26;;;;;;;0.20;0.20;;;;;;;21.84;30.51;94381.34;4967923;28;20114;-68
2021/04/09 02:38:55;;;;;;;;;;;;;;;21.92;30.75;94381.84;4961092;28;20177;-68
2021/04/09 02:41:22;;;;;;;0.70;0.30;;;;;;;21.89;30.86;94377.06;4964661;28;19936;-68
2021/04/09 02:43:47;;;;;;;0.35;0.28;;;;;;;21.89;30.59;94371.78;4940968;28;20027;-68
2021/04/09 02:46:22;;;;;;;0.30;0.30;;;;;;;21.88;30.56;94370.22;4951252;28;20098;-68
2021/04/09 02:49:00;;;;;;;0.20;0.20;;;;;;;21.89;30.67;94369.13;4961380;28;20026;-68
2021/04/09 02:51:27;;;;;;;0.30;0.30;;;;;;;21.86;30.75;94362.53;4987309;28;20097;-68
2021/04/09 02:53:52;;;;;;;0.45;0.20;;;;;;;21.88;30.50;94367.56;4956783;28;20027;-68
2021/04/09 02:56:20;;;;;;;0.25;0.25;;;;;;;21.86;30.39;94368.63;4968660;28;20123;-68
2021/04/09 02:58:45;;;;;;;0.32;0.30;;;;;;;21.86;30.46;94363.31;4972969;28;20029;-68
2021/04/09 03:01:11;;;;;;;0.20;0.20;;;;;;;21.86;30.56;94367.84;4957320;28;20026;-68
2021/04/09 03:03:36;;;;;;;0.28;0.28;;;;;;;21.86;30.68;94373.91;4975645;28;20035;-68
2021/04/09 03:06:03;;;;;;;0.22;0.22;;;;;;;21.88;30.41;94383.44;4958444;28;20026;-68
2021/04/09 03:08:28;;;;;;;0.30;0.20;;;;;;;21.88;30.49;94380.81;4973073;28;20031;-68
2021/04/09 03:10:54;;;;;;;0.20;0.20;;;;;;;21.86;30.48;94373.13;4968226;28;20042;-68
2021/04/09 03:13:20;;;;;;;0.30;0.20;;;;;;;21.86;30.65;94373.91;4972219;28;20031;-68
2021/04/09 03:15:59;;;;;;;0.40;0.20;;;;;;;21.89;30.72;94374.44;4987123;28;20125;-68
2021/04/09 03:18:25;;;;;;;0.45;0.20;;;;;;;21.86;30.72;94371.25;4992063;28;20235;-68
2021/04/09 03:20:54;;;;;;;0.20;0.20;;;;;;;21.85;30.45;94369.66;4945937;28;20027;-68
2021/04/09 03:23:19;;;;;;;0.30;0.30;;;;;;;21.84;30.65;94370.75;4975774;28;20041;-68
2021/04/09 03:25:45;;;;;;;0.30;0.20;;;;;;;21.86;30.67;94365.19;4964564;28;20026;-68
2021/04/09 03:28:10;;;;;;;0.30;0.30;;;;;;;21.88;30.67;94364.91;4959637;28;20038;-68
2021/04/09 03:30:36;;;;;;;0.30;0.30;;;;;;;21.86;30.88;94368.63;4991531;28;20034;-68
2021/04/09 03:33:03;;;;;;;0.30;0.30;;;;;;;21.86;30.64;94358.03;4989468;28;20022;-68
2021/04/09 03:35:29;;;;;;;0.22;0.20;;;;;;;21.86;30.79;94365.97;4984004;28;20113;-68
2021/04/09 03:37:54;;;;;;;0.20;0.20;;;;;;;21.88;30.50;94364.91;4957782;28;20121;-68
2021/04/09 03:40:23;;;;;;;0.32;0.30;;;;;;;21.88;30.55;94368.34;4969084;28;20045;-68
2021/04/09 03:42:48;;;;;;;0.30;0.30;;;;;;;21.87;30.76;94361.47;4977302;28;20051;-68
2021/04/09 03:45:14;;;;;;;0.20;0.20;;;;;;;21.88;30.73;94364.91;4974214;28;20138;-68
2021/04/09 03:47:39;;;;;;;0.30;0.25;;;;;;;21.86;30.78;94363.31;4959844;28;20094;-68
2021/04/09 03:50:07;;;;;;;0.20;0.20;;;;;;;21.90;30.45;94358.28;4964801;28;20038;-68
2021/04/09 03:52:33;;;;;;;0.20;0.20;;;;;;;21.89;30.85;94350.59;4977708;28;20034;-68
2021/04/09 03:54:59;;;;;;;0.30;0.30;;;;;;;21.86;30.50;94344.78;4971397;28;20050;-68
2021/04/09 03:57:26;;;;;;;0.20;0.20;;;;;;;21.88;30.56;94346.38;4963037;28;20057;-68
2021/04/09 03:59:52;;;;;;;0.75;0.20;;;;;;;21.86;30.59;94342.16;4962480;28;20034;-68
2021/04/09 04:02:20;;;;;;;0.20;0.20;;;;;;;21.88;30.83;94344.53;4995512;28;20034;-68
2021/04/09 04:04:45;;;;;;;0.80;0.25;;;;;;;21.86;30.54;94339.50;4963242;28;20036;-68
2021/04/09 04:07:13;;;;;;;0.25;0.20;;;;;;;21.89;30.75;94337.38;4960134;28;20026;-68
2021/04/09 04:09:38;;;;;;;0.20;0.20;;;;;;;21.84;30.62;94340.84;4981284;28;20058;-67
2021/04/09 04:12:05;;;;;;;0.32;0.30;;;;;;;21.89;30.77;94348.75;4973777;28;20046;-68
2021/04/09 04:14:31;;;;;;;0.30;0.30;;;;;;;21.88;30.70;94341.09;4962112;28;20057;-68
2021/04/09 04:16:57;;;;;;;0.32;0.20;;;;;;;21.88;30.62;94339.22;4978515;28;20045;-68
2021/04/09 04:19:26;;;;;;;0.20;0.20;;;;;;;21.91;30.37;94343.19;4977642;28;20026;-68
2021/04/09 04:21:52;;;;;;;0.20;0.20;;;;;;;21.86;30.59;94341.38;4987254;28;20117;-68
2021/04/09 04:24:20;;;;;;;0.30;0.30;;;;;;;21.90;30.50;94346.91;4974545;28;20031;-68
2021/04/09 04:26:46;;;;;;;0.30;0.30;;;;;;;21.88;30.66;94344.53;4975439;28;20038;-68
2021/04/09 04:29:13;;;;;;;0.75;0.30;;;;;;;21.86;30.50;94344.78;4977886;28;20042;-68
2021/04/09 04:31:40;;;;;;;0.30;0.30;;;;;;;21.88;30.55;94343.75;4984683;28;20033;-68
2021/04/09 04:34:05;;;;;;;0.20;0.20;;;;;;;21.87;30.69;94348.22;4997513;28;20053;-68
2021/04/09 04:36:31;;;;;;;0.30;0.30;;;;;;;21.88;30.49;94351.69;4958460;28;20053;-68
2021/04/09 04:38:56;;;;;;;0.20;0.20;;;;;;;21.87;30.36;94353.53;4993075;28;20026;-68
2021/04/09 04:41:22;;;;;;;0.30;0.30;;;;;;;21.88;30.29;94354.34;4972017;28;20030;-68
2021/04/09 04:43:49;;;;;;;0.25;0.25;;;;;;;21.88;30.67;94356.97;4947262;28;20033;-68
2021/04/09 04:46:15;;;;;;;0.40;0.20;;;;;;;21.88;30.55;94352.47;4975083;28;20037;-68
2021/04/09 04:48:40;;;;;;;0.28;0.28;;;;;;;21.89;30.67;94350.59;4976158;28;20030;-68
2021/04/09 04:51:06;;;;;;;0.20;0.20;;;;;;;21.87;30.60;94350.88;4991653;28;20034;-68
2021/04/09 04:53:32;;;;;;;0.30;0.28;;;;;;;21.88;30.58;94349.03;4977897;28;20057;-68
2021/04/09 04:55:57;;;;;;;0.30;0.30;;;;;;;21.89;30.50;94348.75;4994007;28;20034;-68
2021/04/09 04:58:23;;;;;;;0.30;0.30;;;;;;;21.86;30.55;94338.72;4994026;28;20283;-68
2021/04/09 05:00:49;;;;;;;0.40;0.40;;;;;;;21.89;30.76;94342.66;4975182;28;20077;-69
2021/04/09 05:03:15;;;;;;;0.20;0.20;;;;;;;21.85;30.71;94335.25;4995413;28;20085;-69
2021/04/09 05:05:43;;;;;;;0.25;0.20;;;;;;;21.87;30.43;94337.63;4957361;28;20023;-69
2021/04/09 05:08:08;;;;;;;0.30;0.30;;;;;;;21.86;30.58;94342.16;4984518;28;20030;-69
2021/04/09 05:10:34;;;;;;;0.20;0.20;;;;;;;21.84;30.35;94338.19;4992769;28;20096;-69
2021/04/09 05:12:59;;;;;;;0.35;0.30;;;;;;;21.88;30.77;94343.75;4975587;28;20042;-69
2021/04/09 05:15:29;;;;;;;0.30;0.30;;;;;;;21.90;30.48;94344.25;4977629;28;20041;-69
2021/04/09 05:17:55;;;;;;;0.35;0.32;;;;;;;21.88;30.50;94338.44;4977596;28;20054;-69
2021/04/09 05:20:23;;;;;;;0.20;0.20;;;;;;;21.86;30.38;94334.19;4993736;28;20030;-69
2021/04/09 05:22:49;;;;;;;0.20;0.20;;;;;;;21.87;30.37;94340.28;4990052;28;20033;-69
2021/04/09 05:25:14;;;;;;;0.20;0.20;;;;;;;21.88;30.77;94343.75;4993093;28;20030;-69
2021/04/09 05:27:39;;;;;;;0.30;0.30;;;;;;;21.85;30.40;94335.25;4976481;28;20079;-69
2021/04/09 05:30:06;;;;;;;0.20;0.20;;;;;;;21.86;30.44;94342.16;4974621;28;20034;-70
2021/04/09 05:32:31;;;;;;;0.20;0.20;;;;;;;21.85;30.55;94343.19;4956530;28;20050;-70
2021/04/09 05:34:57;;;;;;;0.30;0.30;;;;;;;21.86;30.35;94351.94;4971652;28;20038;-69
2021/04/09 05:37:29;;;;;;;0.20;0.20;;;;;;;21.90;30.67;94346.91;4974636;28;20026;-70
2021/04/09 05:39:56;;;;;;;0.20;0.20;;;;;;;21.88;30.41;94349.03;4987852;28;20038;-70
2021/04/09 05:42:22;;;;;;;0.40;0.30;;;;;;;21.88;30.60;94347.19;4991707;28;20026;-69
2021/04/09 05:44:48;;;;;;;0.30;0.30;;;;;;;21.85;30.38;94339.75;4990447;28;20030;-69
2021/04/09 05:47:14;;;;;;;0.30;0.30;;;;;;;21.89;30.62;94347.97;4972797;28;20050;-69
2021/04/09 05:49:43;;;;;;;0.30;0.30;;;;;;;21.88;30.67;94343.75;4966933;28;20047;-70
2021/04/09 05:52:09;;;;;;;0.50;0.32;;;;;;;21.88;30.36;94343.75;4946152;28;20035;-70
2021/04/09 05:54:35;;;;;;;0.28;0.28;;;;;;;21.86;30.56;94346.66;4956076;28;20105;-70
2021/04/09 05:57:02;;;;;;;0.30;0.30;;;;;;;21.86;30.65;94344.78;4960149;28;20031;-70
2021/04/09 05:59:30;;;;;;;0.20;0.20;;;;;;;21.86;30.51;94346.66;4955666;28;20085;-70
2021/04/09 06:01:55;;;;;;;0.30;0.30;;;;;;;21.86;30.35;94346.66;4955198;28;20035;-70
2021/04/09 06:04:21;;;;;;;0.22;0.20;;;;;;;21.85;30.68;94345.84;4965349;28;20023;-70
2021/04/09 06:06:46;;;;;;;0.30;0.30;;;;;;;21.86;30.26;94347.44;4946740;28;20126;-67
2021/04/09 06:09:13;;;;;;;1.90;0.50;;;;;;;21.89;30.76;94345.31;4948171;28;20065;-73
2021/04/09 06:11:39;;;;;;;1.23;0.50;;;;;;;21.18;37.38;94350.44;4973388;28;20061;-67
2021/04/09 06:14:04;;;;;;;1.15;0.80;;;;;;;20.97;32.68;94356.78;4956368;28;20015;-65
2021/04/09 06:16:29;;;;;;;1.30;0.68;;;;;;;21.17;32.55;94366.56;4956947;28;20053;-65
2021/04/09 06:18:57;;;;;;;1.45;0.55;;;;;;;21.42;32.10;94369.19;4954402;28;20118;-62
2021/04/09 06:21:26;;;;;;;1.30;0.50;;;;;;;21.57;31.85;94370.25;4972096;28;20022;-62
2021/04/09 06:23:52;;;;;;;2.38;0.50;;;;;;;21.66;31.92;94363.38;4970621;28;20031;-62
2021/04/09 06:26:18;;;;;;;0.68;0.50;;;;;;;21.73;31.71;94366.53;4953180;28;20037;-62
2021/04/09 06:28:43;;;;;;;1.95;0.30;;;;;;;21.80;31.24;94367.06;4968809;28;20050;-62
2021/04/09 06:31:16;;;;;;;0.60;0.50;;;;;;;21.84;31.08;94365.44;4968709;28;20034;-62
2021/04/09 06:33:41;;;;;;;0.95;0.40;;;;;;;21.88;31.34;94370.22;4970201;28;20031;-62
2021/04/09 06:36:07;;;;;;;1.13;0.50;;;;;;;21.89;31.02;94374.44;4963868;28;20042;-62
2021/04/09 06:38:33;;;;;;;1.23;0.30;;;;;;;21.91;31.03;94367.00;4947059;28;20035;-62
2021/04/09 06:40:58;;;;;;;3.22;0.60;;;;;;;21.92;30.96;94363.31;4936766;28;20029;-62
2021/04/09 06:43:26;;;;;;;0.50;0.50;;;;;;;21.94;30.82;94361.97;4968994;28;20027;-62
2021/04/09 06:45:53;;;;;;;0.93;0.38;;;;;;;21.94;31.00;94361.97;4945573;29;20039;-62
2021/04/09 06:48:19;;;;;;;0.55;0.40;;;;;;;21.95;31.03;94368.88;4939610;28;20038;-62
2021/04/09 06:50:45;;;;;;;1.02;0.50;;;;;;;21.95;30.57;94368.06;4970708;28;20026;-62
2021/04/09 06:53:16;;;;;;;0.60;0.40;;;;;;;21.96;30.49;94364.34;4963611;28;20046;-62
2021/04/09 06:55:46;;;;;;;0.35;0.32;;;;;;;21.96;30.82;94351.91;4974729;28;20049;-62
2021/04/09 06:58:17;;;;;;;0.38;0.30;;;;;;;21.96;30.35;94356.41;4972123;28;20022;-62
2021/04/09 07:00:43;;;;;;;;;;;;;;;22.01;30.94;94354.53;4945124;28;20107;-62
2021/04/09 07:03:11;;;;;;;0.65;0.40;;;;;;;21.99;30.40;94355.84;4988402;28;19925;-62
2021/04/09 07:05:37;;;;;;;1.25;0.38;;;;;;;21.98;30.27;94349.78;4969968;28;20030;-62
2021/04/09 07:08:03;;;;;;;0.60;0.50;;;;;;;21.96;30.21;94345.81;4974551;28;20038;-62
2021/04/09 07:10:30;;;;;;;0.40;0.40;;;;;;;21.97;30.65;94355.34;4958032;28;20126;-62
2021/04/09 07:13:09;;;;;;;0.57;0.38;;;;;;;21.98;30.45;94355.06;4990196;28;20022;-61
2021/04/09 07:15:44;;;;;;;0.93;0.40;;;;;;;21.98;30.74;94351.66;4956954;28;20042;-62
2021/04/09 07:18:11;;;;;;;0.30;0.30;;;;;;;21.94;30.69;94353.25;4955279;28;20026;-62
2021/04/09 07:20:38;;;;;;;0.52;0.50;;;;;;;21.94;30.51;94337.38;4970643;28;20027;-62
2021/04/09 07:23:06;;;;;;;0.40;0.35;;;;;;;21.95;30.27;94349.53;4987525;28;20026;-62
2021/04/09 07:25:36;;;;;;;1.75;0.40;;;;;;;21.95;30.57;94345.03;4954171;28;20033;-62
2021/04/09 07:28:22;;;;;;;1.23;0.50;;;;;;;21.89;30.53;94335.50;4983927;28;20026;-61
2021/04/09 07:30:56;;;;;;;0.70;0.50;;;;;;;21.91;30.73;94349.25;4974682;28;20054;-62
2021/04/09 07:33:25;;;;;;;0.30;0.30;;;;;;;21.91;30.60;94348.47;4975470;28;20033;-62
2021/04/09 07:36:04;;;;;;;0.60;0.40;;;;;;;21.95;30.38;94341.56;4975306;28;20034;-62
2021/04/09 07:38:31;;;;;;;0.30;0.30;;;;;;;21.91;30.41;94348.47;4961072;28;20022;-62
2021/04/09 07:40:57;;;;;;;0.38;0.30;;;;;;;21.89;30.67;94343.44;4993934;28;20030;-62
2021/04/09 07:43:23;;;;;;;0.93;0.30;;;;;;;21.91;30.49;94345.84;4971466;28;20038;-62
2021/04/09 07:45:54;;;;;;;0.35;0.30;;;;;;;21.89;30.67;94340.03;4954284;29;20049;-62
2021/04/09 07:48:19;;;;;;;0.40;0.40;;;;;;;21.89;30.29;94345.31;4973988;28;20035;-62
2021/04/09 07:50:48;;;;;;;0.68;0.40;;;;;;;21.89;30.55;94346.09;4959207;28;20062;-62
2021/04/09 07:53:40;;;;;;;0.30;0.30;;;;;;;21.92;30.58;94344.78;4957490;28;20030;-62
2021/04/09 07:56:10;;;;;;;0.40;0.40;;;;;;;21.91;30.61;94338.69;4954222;28;20030;-62
2021/04/09 07:58:37;;;;;;;0.40;0.40;;;;;;;21.89;30.28;94347.97;4975701;28;20032;-62
2021/04/09 08:01:17;;;;;;;0.70;0.38;;;;;;;21.89;30.12;94350.59;4976106;28;20038;-62
2021/04/09 08:03:42;;;;;;;0.50;0.50;;;;;;;21.89;30.52;94353.25;4971334;28;20100;-62
2021/04/09 08:06:18;;;;;;;1.08;0.40;;;;;;;21.93;30.51;94351.66;4956908;28;20047;-62
2021/04/09 08:08:47;;;;;;;0.40;0.40;;;;;;;21.91;30.44;94346.63;4955394;28;20038;-61
2021/04/09 08:11:28;;;;;;;0.82;0.63;;;;;;;22.00;29.96;94341.56;4966617;28;20125;-62
2021/04/09 08:14:00;;;;;;;0.70;0.70;;;;;;;22.07;29.63;94339.44;4980022;28;20022;-62
2021/04/09 08:16:32;;;;;;;1.60;0.40;;;;;;;22.12;29.14;94334.09;4972164;28;20351;-62
2021/04/09 08:19:03;;;;;;;0.50;0.50;;;;;;;22.18;29.10;94340.16;4957693;28;20026;-62
2021/04/09 08:21:30;;;;;;;0.40;0.40;;;;;;;22.18;28.78;94343.63;4952962;29;20051;-62
2021/04/09 08:23:57;;;;;;;0.50;0.50;;;;;;;22.24;28.75;94341.75;4948009;28;20093;-62
2021/04/09 08:26:24;;;;;;;0.57;0.30;;;;;;;22.25;28.93;94338.84;4953317;28;20078;-62
2021/04/09 08:28:54;;;;;;;0.90;0.40;;;;;;;22.29;28.88;94338.31;4956581;28;20090;-62
2021/04/09 08:31:19;;;;;;;0.40;0.40;;;;;;;22.28;28.97;94337.50;4967756;28;20034;-62
2021/04/09 08:33:48;;;;;;;0.40;0.40;;;;;;;22.31;29.19;94338.81;4949812;28;20042;-62
2021/04/09 08:36:15;;;;;;;0.35;0.35;;;;;;;22.28;28.89;94329.56;4953638;28;20141;-62
2021/04/09 08:38:41;;;;;;;1.25;0.50;;;;;;;22.31;29.30;94331.66;4931375;29;20027;-62
2021/04/09 08:41:10;;;;;;;0.30;0.30;;;;;;;22.31;29.12;94330.88;4953322;28;20090;-62
2021/04/09 08:43:37;;;;;;;0.30;0.30;;;;;;;22.32;29.12;94321.88;4933204;28;20042;-62
2021/04/09 08:46:03;;;;;;;0.63;0.45;;;;;;;22.33;28.96;94326.09;4952308;28;20023;-62
2021/04/09 08:48:29;;;;;;;0.40;0.32;;;;;;;22.34;29.11;94322.38;4940572;28;20027;-62
2021/04/09 08:50:55;;;;;;;0.82;0.40;;;;;;;22.32;29.10;94329.81;4943057;28;20038;-62
2021/04/09 08:53:27;;;;;;;1.00;0.40;;;;;;;22.37;28.91;94327.13;4946518;28;20053;-62
2021/04/09 08:55:52;;;;;;;0.40;0.40;;;;;;;22.33;28.90;94321.59;4957182;28;20062;-62
2021/04/09 08:58:18;;;;;;;0.40;0.40;;;;;;;22.33;29.10;94323.44;4972723;28;20026;-62
2021/04/09 09:00:44;;;;;;;0.45;0.45;;;;;;;22.33;29.28;94326.91;4967036;28;20053;-62
2021/04/09 09:03:27;;;;;;;0.40;0.40;;;;;;;22.38;29.09;94320.78;4957194;28;20121;-62
2021/04/09 09:06:00;;;;;;;0.57;0.40;;;;;;;22.36;29.05;94314.97;4965423;28;20045;-62
2021/04/09 09:08:41;;;;;;;0.40;0.40;;;;;;;22.36;29.18;94309.66;4957374;28;20048;-62
2021/04/09 09:11:06;;;;;;;;;;;;;;;22.37;29.35;94314.69;4973307;28;20142;-61
2021/04/09 09:13:40;;;;;;;0.47;0.43;;;;;;;22.34;28.94;94309.94;4972097;28;19981;-62
2021/04/09 09:16:19;;;;;;;0.57;0.40;;;;;;;22.35;28.88;94303.56;4939669;28;20073;-62
2021/04/09 09:18:48;;;;;;;0.30;0.30;;;;;;;22.32;29.17;94301.47;4938952;28;20031;-62
2021/04/09 09:21:13;;;;;;;2.10;0.60;;;;;;;22.33;28.73;94302.25;4955653;28;20093;-62
2021/04/09 09:23:52;;;;;;;1.92;0.55;;;;;;;22.36;28.93;94304.38;4972989;28;20022;-61
2021/04/09 09:26:36;;;;;;;1.33;0.60;;;;;;;22.35;28.86;94297.47;4968551;28;20035;-61
2021/04/09 09:29:14;;;;;;;1.63;0.60;;;;;;;22.33;29.12;94296.94;4968572;28;20190;-62
2021/04/09 09:31:41;;;;;;;0.40;0.40;;;;;;;22.32;28.84;94295.38;4968645;28;20023;-61
2021/04/09 09:34:20;;;;;;;0.75;0.45;;;;;;;22.33;28.88;94297.75;4987701;28;20217;-61
2021/04/09 09:37:02;;;;;;;1.40;0.50;;;;;;;22.35;28.87;94302.75;4970191;28;20075;-62
2021/04/09 09:39:48;;;;;;;0.40;0.40;;;;;;;22.32;28.80;94305.97;4971503;28;20034;-61
2021/04/09 09:42:22;;;;;;;0.40;0.40;;;;;;;22.31;28.83;94294.56;4951634;28;20030;-62
2021/04/09 09:44:55;;;;;;;0.47;0.38;;;;;;;22.30;29.25;94294.88;4971433;28;20015;-62
2021/04/09 09:47:28;;;;;;;0.70;0.45;;;;;;;22.31;28.70;94291.13;4950287;28;20031;-61
2021/04/09 09:50:07;;;;;;;0.50;0.40;;;;;;;22.35;29.06;94292.16;4969508;28;20034;-61
2021/04/09 09:52:41;;;;;;;0.45;0.40;;;;;;;22.33;28.73;94292.47;4971073;28;20019;-61
2021/04/09 09:55:12;;;;;;;0.65;0.60;;;;;;;22.32;29.04;94293.50;4970599;28;20102;-62
2021/04/09 09:57:41;;;;;;;;;;;;;;;22.35;28.96;94284.22;4959361;28;20033;-62
2021/04/09 10:00:09;;;;;;;0.50;0.40;;;;;;;22.34;29.06;94293.25;4967201;28;20001;-61
2021/04/09 10:02:34;;;;;;;0.40;0.40;;;;;;;22.31;28.69;94285.84;4956699;28;20035;-61
2021/04/09 10:05:02;;;;;;;1.27;0.32;;;;;;;22.32;29.05;94285.56;4971802;28;20030;-62
2021/04/09 10:07:28;;;;;;;0.45;0.40;;;;;;;22.32;29.13;94284.78;4968653;28;20031;-61
2021/04/09 10:09:54;;;;;;;0.38;0.38;;;;;;;22.32;28.73;94288.22;4965192;28;20038;-61
2021/04/09 10:12:23;;;;;;;0.63;0.50;;;;;;;22.32;28.63;94295.38;4949468;28;20034;-61
2021/04/09 10:14:49;;;;;;;0.60;0.52;;;;;;;22.29;28.74;94280.03;4936415;28;20015;-61
2021/04/09 10:17:15;;;;;;;0.52;0.40;;;;;;;22.32;28.76;94288.22;4934138;28;20035;-62
2021/04/09 10:20:03;;;;;;;0.85;0.50;;;;;;;22.35;29.21;94282.38;4968749;28;20038;-62
2021/04/09 10:22:31;;;;;;;0.68;0.40;;;;;;;22.30;29.19;94277.09;4964660;28;20023;-62
2021/04/09 10:24:57;;;;;;;0.73;0.40;;;;;;;22.33;28.98;94275.75;4934654;28;20018;-61
2021/04/09 10:27:25;;;;;;;0.60;0.43;;;;;;;22.31;29.12;94275.25;4953152;28;20042;-62
2021/04/09 10:29:51;;;;;;;0.50;0.40;;;;;;;22.30;29.22;94273.66;4955286;28;20040;-62
2021/04/09 10:32:20;;;;;;;0.75;0.40;;;;;;;22.32;28.75;94277.63;4969793;28;20111;-62
2021/04/09 10:34:47;;;;;;;0.50;0.50;;;;;;;22.32;28.90;94269.69;4969591;28;20023;-61
2021/04/09 10:37:24;;;;;;;0.63;0.30;;;;;;;22.34;28.92;94264.88;4938039;28;20046;-61
2021/04/09 10:39:50;;;;;;;0.45;0.40;;;;;;;22.30;28.97;94263.06;4945722;28;20047;-62
2021/04/09 10:42:16;;;;;;;0.55;0.50;;;;;;;22.30;29.05;94255.91;4943757;28;20023;-61
2021/04/09 10:44:41;;;;;;;0.52;0.50;;;;;;;22.29;29.07;94253.53;4937592;28;20034;-61
2021/04/09 10:47:07;;;;;;;0.50;0.40;;;;;;;22.30;28.96;94253.25;4969854;28;20089;-62
2021/04/09 10:49:37;;;;;;;0.60;0.40;;;;;;;22.32;28.89;94253.00;4970829;28;20117;-62
2021/04/09 10:52:13;;;;;;;0.30;0.30;;;;;;;22.32;28.93;94255.66;4957595;28;20070;-61
2021/04/09 10:54:40;;;;;;;0.47;0.40;;;;;;;22.31;28.83;94240.81;4955219;28;20026;-62
2021/04/09 10:57:07;;;;;;;0.30;0.30;;;;;;;22.30;29.11;94239.25;4937244;28;20038;-62
2021/04/09 10:59:57;;;;;;;0.47;0.40;;;;;;;22.31;28.87;94238.16;4936195;28;20027;-62
2021/04/09 11:02:24;;;;;;;0.30;0.30;;;;;;;22.32;28.71;94231.81;4963070;28;20073;-61
2021/04/09 11:05:04;;;;;;;0.45;0.40;;;;;;;22.30;28.99;94228.66;5064314;28;20360;-60
2021/04/09 11:07:42;;;;;;;1.02;0.40;;;;;;;22.34;29.23;94222.50;5033965;28;20116;-60
2021/04/09 11:10:09;;;;;;;0.43;0.35;;;;;;;22.29;28.71;94227.03;5028799;28;20021;-60
2021/04/09 11:12:34;;;;;;;0.30;0.30;;;;;;;22.30;29.16;94218.81;5045479;28;20025;-60
2021/04/09 11:15:13;;;;;;;0.40;0.40;;;;;;;22.31;28.99;94222.25;5013028;28;20033;-60
2021/04/09 11:18:13;;;;;;;0.40;0.40;;;;;;;22.30;28.89;94218.03;5023335;28;20083;-60
2021/04/09 11:20:45;;;;;;;0.40;0.40;;;;;;;22.30;28.91;94212.75;5035521;28;20036;-60
2021/04/09 11:23:13;;;;;;;0.60;0.38;;;;;;;22.31;29.10;94216.97;5043566;28;20033;-60
2021/04/09 11:25:48;;;;;;;0.35;0.35;;;;;;;22.33;29.14;94214.81;4988763;28;20042;-60
2021/04/09 11:28:33;;;;;;;0.50;0.50;;;;;;;22.33;28.95;94212.19;4999429;28;20148;-60
2021/04/09 11:31:03;;;;;;;0.40;0.40;;;;;;;22.32;28.71;94197.38;4989805;28;20038;-60
2021/04/09 11:33:33;;;;;;;0.40;0.40;;;;;;;22.33;28.86;94206.88;5005942;28;20106;-60
2021/04/09 11:36:21;;;;;;;0.40;0.40;;;;;;;22.32;28.78;94195.50;5006047;28;20109;-60
2021/04/09 11:38:46;;;;;;;0.40;0.40;;;;;;;22.28;28.67;94191.81;4986099;28;20129;-60
2021/04/09 11:41:31;;;;;;;0.40;0.40;;;;;;;22.32;28.75;94195.50;4971825;28;20035;-61